Time;durP1;ratioP1;P1;durP2;ratioP2;P2;SDS_P1;SDS_P2;PMS_P1;PMS_P2;Temp;Humidity;BMP_temperature;BMP_pressure;BME280_temperature;BME280_humidity;BME280_pressure;Samples;Min_cycle;Max_cycle;Signal;HPM_P1;HPM_P2
2022/06/17 00:01:01;;;;;;;5.18;3.80;;;;;;;;;;4972918;28;20510;-72
2022/06/17 00:03:29;;;;;;;8.10;3.85;;;;;;;;;;4972664;28;20027;-71
2022/06/17 00:05:58;;;;;;;8.25;3.22;;;;;;;;;;4972821;28;20022;-72
2022/06/17 00:08:30;;;;;;;5.68;3.38;;;;;;;;;;4956796;28;20050;-72
2022/06/17 00:10:56;;;;;;;7.13;3.30;;;;;;;;;;4972779;28;20502;-72
2022/06/17 00:13:24;;;;;;;9.10;3.53;;;;;;;;;;4973760;28;20030;-72
2022/06/17 00:15:50;;;;;;;11.57;4.40;;;;;;;;;;4972632;28;20050;-73
2022/06/17 00:18:18;;;;;;;8.13;3.33;;;;;;;;;;4972260;28;20383;-71
2022/06/17 00:20:44;;;;;;;6.40;3.50;;;;;;;;;;4973856;28;20023;-72
2022/06/17 00:23:12;;;;;;;3.75;3.25;;;;;;;;;;4988244;28;20497;-72
2022/06/17 00:25:39;;;;;;;6.57;3.50;;;;;;;;;;4993276;28;20027;-72
2022/06/17 00:28:13;;;;;;;7.13;3.15;;;;;;;;;;4992047;28;20398;-72
2022/06/17 00:30:40;;;;;;;8.38;2.97;;;;;;;;;;4993080;28;20089;-75
2022/06/17 00:33:06;;;;;;;11.02;4.22;;;;;;;;;;4991825;28;20080;-73
2022/06/17 00:35:40;;;;;;;7.70;3.40;;;;;;;;;;5000932;28;20033;-75
2022/06/17 00:38:11;;;;;;;7.05;3.47;;;;;;;;;;5022361;28;20030;-73
2022/06/17 00:40:37;;;;;;;3.05;2.85;;;;;;;;;;5000818;28;20100;-74
2022/06/17 00:43:09;;;;;;;5.10;3.55;;;;;;;;;;4996071;28;20418;-74
2022/06/17 00:45:41;;;;;;;11.00;3.65;;;;;;;;;;4993638;28;20414;-74
2022/06/17 00:48:27;;;;;;;5.88;3.45;;;;;;;;;;4992006;28;20030;-75
2022/06/17 00:51:07;;;;;;;5.40;3.22;;;;;;;;;;4992630;28;20034;-75
2022/06/17 00:54:06;;;;;;;3.78;3.03;;;;;;;;;;4995564;28;20022;-74
2022/06/17 00:56:34;;;;;;;3.30;3.00;;;;;;;;;;4998849;28;20030;-74
2022/06/17 00:59:09;;;;;;;5.50;3.10;;;;;;;;;;4991406;28;20034;-73
2022/06/17 01:01:56;;;;;;;4.82;2.90;;;;;;;;;;4991096;28;20117;-74
2022/06/17 01:04:29;;;;;;;5.97;3.40;;;;;;;;;;4992524;28;20089;-74
2022/06/17 01:06:59;;;;;;;11.85;3.40;;;;;;;;;;4990371;28;20420;-75
2022/06/17 01:12:17;;;;;;;8.07;3.45;;;;;;;;;;4992675;28;20543;-75
2022/06/17 01:14:43;;;;;;;5.68;3.13;;;;;;;;;;4992384;28;20062;-74
2022/06/17 01:17:14;;;;;;;7.22;2.67;;;;;;;;;;4991101;28;20062;-75
2022/06/17 01:19:47;;;;;;;;;;;;;;;;;;4991273;28;20037;-74
2022/06/17 01:22:25;;;;;;;13.63;3.35;;;;;;;;;;4984804;28;19910;-74
2022/06/17 01:24:57;;;;;;;4.07;3.17;;;;;;;;;;4971267;28;20373;-74
2022/06/17 01:27:28;;;;;;;5.22;2.70;;;;;;;;;;4972858;28;20038;-73
2022/06/17 01:29:54;;;;;;;4.65;2.85;;;;;;;;;;4972667;28;20047;-73
2022/06/17 01:32:23;;;;;;;7.03;2.90;;;;;;;;;;4972436;28;20097;-74
2022/06/17 01:34:49;;;;;;;5.38;3.17;;;;;;;;;;4973028;28;20073;-74
2022/06/17 01:37:16;;;;;;;5.82;3.17;;;;;;;;;;4972346;28;20022;-74
2022/06/17 01:39:43;;;;;;;4.22;2.72;;;;;;;;;;4971172;28;20521;-74
2022/06/17 01:42:10;;;;;;;6.40;3.10;;;;;;;;;;4971280;28;20031;-74
2022/06/17 01:44:38;;;;;;;3.45;2.65;;;;;;;;;;4972457;28;20022;-74
2022/06/17 01:47:18;;;;;;;6.63;3.28;;;;;;;;;;4971098;28;20065;-73
2022/06/17 01:49:53;;;;;;;4.50;2.83;;;;;;;;;;4956661;28;20031;-74
2022/06/17 01:52:28;;;;;;;6.07;3.00;;;;;;;;;;4972292;28;20498;-75
2022/06/17 01:55:07;;;;;;;4.57;3.25;;;;;;;;;;4970986;28;20038;-75
2022/06/17 01:57:37;;;;;;;3.03;2.60;;;;;;;;;;4971044;28;20049;-74
2022/06/17 02:00:29;;;;;;;4.97;3.63;;;;;;;;;;4971960;28;20498;-74
2022/06/17 02:03:03;;;;;;;4.13;2.88;;;;;;;;;;4971747;28;20394;-74
2022/06/17 02:05:33;;;;;;;7.75;3.13;;;;;;;;;;4971901;28;20114;-73
2022/06/17 02:08:00;;;;;;;4.00;2.90;;;;;;;;;;4970684;28;20066;-74
2022/06/17 02:10:32;;;;;;;3.35;3.00;;;;;;;;;;4971832;28;20022;-74
2022/06/17 02:13:01;;;;;;;6.63;3.17;;;;;;;;;;4972432;28;20288;-75
2022/06/17 02:15:26;;;;;;;5.05;3.38;;;;;;;;;;4971787;28;20181;-73
2022/06/17 02:17:52;;;;;;;8.20;3.08;;;;;;;;;;4970441;28;20527;-74
2022/06/17 02:20:19;;;;;;;3.83;3.05;;;;;;;;;;4970081;28;20499;-74
2022/06/17 02:22:46;;;;;;;11.40;3.20;;;;;;;;;;4981728;28;20022;-74
2022/06/17 02:25:17;;;;;;;5.70;3.13;;;;;;;;;;5005873;28;20030;-74
2022/06/17 02:27:45;;;;;;;6.07;3.55;;;;;;;;;;4989982;28;20041;-74
2022/06/17 02:30:13;;;;;;;6.78;3.10;;;;;;;;;;4989466;28;20042;-74
2022/06/17 02:32:39;;;;;;;10.13;3.47;;;;;;;;;;4989791;28;20026;-74
2022/06/17 02:35:24;;;;;;;7.10;2.83;;;;;;;;;;4989565;28;20064;-74
2022/06/17 02:37:52;;;;;;;6.07;2.47;;;;;;;;;;4989628;28;20113;-74
2022/06/17 02:40:31;;;;;;;4.00;2.88;;;;;;;;;;4989144;28;20518;-74
2022/06/17 02:43:00;;;;;;;4.38;2.90;;;;;;;;;;4990845;28;20026;-74
2022/06/17 02:45:28;;;;;;;3.75;2.90;;;;;;;;;;4988930;28;20112;-74
2022/06/17 02:47:54;;;;;;;6.15;3.40;;;;;;;;;;4989474;28;20030;-74
2022/06/17 02:50:24;;;;;;;4.93;3.00;;;;;;;;;;4988997;28;20049;-75
2022/06/17 02:52:51;;;;;;;4.75;3.67;;;;;;;;;;4991205;28;20030;-74
2022/06/17 02:55:23;;;;;;;5.13;2.78;;;;;;;;;;4989313;28;20026;-74
2022/06/17 02:57:51;;;;;;;7.57;2.80;;;;;;;;;;4990731;28;20081;-75
2022/06/17 03:00:21;;;;;;;6.20;2.70;;;;;;;;;;4988984;28;20030;-75
2022/06/17 03:03:01;;;;;;;4.28;2.70;;;;;;;;;;4990760;28;20109;-74
2022/06/17 03:05:30;;;;;;;5.07;2.88;;;;;;;;;;4988855;28;20041;-75
2022/06/17 03:07:58;;;;;;;3.65;2.90;;;;;;;;;;5005004;28;20041;-73
2022/06/17 03:10:27;;;;;;;8.68;3.72;;;;;;;;;;4988703;28;20026;-74
2022/06/17 03:12:57;;;;;;;5.82;3.00;;;;;;;;;;4989166;28;20026;-73
2022/06/17 03:15:25;;;;;;;4.53;2.78;;;;;;;;;;4990213;28;20041;-75
2022/06/17 03:17:50;;;;;;;7.90;3.88;;;;;;;;;;4990369;28;20034;-74
2022/06/17 03:20:22;;;;;;;7.75;2.95;;;;;;;;;;5005118;28;20521;-74
2022/06/17 03:22:51;;;;;;;5.70;3.08;;;;;;;;;;4988936;28;20034;-74
2022/06/17 03:25:31;;;;;;;4.38;3.05;;;;;;;;;;4990172;28;20026;-74
2022/06/17 03:28:02;;;;;;;6.57;3.80;;;;;;;;;;4990151;28;20034;-74
2022/06/17 03:30:33;;;;;;;8.07;2.95;;;;;;;;;;4987968;28;20491;-74
2022/06/17 03:33:08;;;;;;;;;;;;;;;;;;4989179;28;20380;-75
2022/06/17 03:35:36;;;;;;;4.18;2.92;;;;;;;;;;4990159;28;19913;-74
2022/06/17 03:38:12;;;;;;;4.35;3.00;;;;;;;;;;4988778;28;20298;-75
2022/06/17 03:40:49;;;;;;;6.95;2.72;;;;;;;;;;4988589;28;20527;-74
2022/06/17 03:43:31;;;;;;;4.20;2.55;;;;;;;;;;4988650;28;20030;-74
2022/06/17 03:46:04;;;;;;;4.57;2.83;;;;;;;;;;4988401;28;20096;-74
2022/06/17 03:48:46;;;;;;;8.68;2.92;;;;;;;;;;4990108;28;20046;-74
2022/06/17 03:51:24;;;;;;;5.10;3.03;;;;;;;;;;4988496;28;20386;-74
2022/06/17 03:53:51;;;;;;;7.13;2.90;;;;;;;;;;4990314;28;20026;-74
2022/06/17 03:56:25;;;;;;;10.13;2.70;;;;;;;;;;4988730;28;20034;-74
2022/06/17 03:58:53;;;;;;;4.15;3.10;;;;;;;;;;4989724;28;20023;-74
2022/06/17 04:01:21;;;;;;;3.15;2.85;;;;;;;;;;4989718;28;20026;-72
2022/06/17 04:03:57;;;;;;;6.88;2.67;;;;;;;;;;4988715;28;20080;-73
2022/06/17 04:06:30;;;;;;;4.60;2.80;;;;;;;;;;4988404;28;20026;-73
2022/06/17 04:08:59;;;;;;;4.32;2.60;;;;;;;;;;4988651;28;20018;-74
2022/06/17 04:11:32;;;;;;;7.45;2.88;;;;;;;;;;4988339;28;20129;-74
2022/06/17 04:14:02;;;;;;;6.80;2.95;;;;;;;;;;4990252;28;20059;-73
2022/06/17 04:16:43;;;;;;;4.63;2.85;;;;;;;;;;4992998;28;20027;-75
2022/06/17 04:19:14;;;;;;;3.08;2.40;;;;;;;;;;4992025;28;20112;-74
2022/06/17 04:21:39;;;;;;;6.65;3.20;;;;;;;;;;4985837;28;20101;-75
2022/06/17 04:24:08;;;;;;;6.10;2.47;;;;;;;;;;4970267;28;20098;-74
2022/06/17 04:26:36;;;;;;;4.28;2.67;;;;;;;;;;4968752;28;20035;-74
2022/06/17 04:29:05;;;;;;;2.83;2.63;;;;;;;;;;4970013;28;20027;-74
2022/06/17 04:31:32;;;;;;;6.63;2.75;;;;;;;;;;4969659;28;20390;-74
2022/06/17 04:34:04;;;;;;;7.18;2.88;;;;;;;;;;4969865;28;20360;-74
2022/06/17 04:36:55;;;;;;;5.32;2.83;;;;;;;;;;4968372;28;20022;-75
2022/06/17 04:39:26;;;;;;;8.40;3.10;;;;;;;;;;4970083;28;20039;-74
2022/06/17 04:41:56;;;;;;;4.73;2.87;;;;;;;;;;4970629;28;20057;-75
2022/06/17 04:44:22;;;;;;;8.95;2.80;;;;;;;;;;4972257;28;20271;-75
2022/06/17 04:46:59;;;;;;;4.18;2.70;;;;;;;;;;4973418;28;20042;-74
2022/06/17 04:49:28;;;;;;;4.00;2.85;;;;;;;;;;4973426;28;20023;-73
2022/06/17 04:51:59;;;;;;;5.32;2.70;;;;;;;;;;4973822;28;20475;-75
2022/06/17 04:54:27;;;;;;;6.47;2.63;;;;;;;;;;4971888;28;20165;-74
2022/06/17 04:56:56;;;;;;;6.07;2.90;;;;;;;;;;4973138;28;20034;-74
2022/06/17 04:59:36;;;;;;;7.53;3.28;;;;;;;;;;4972265;28;20085;-73
2022/06/17 05:02:07;;;;;;;2.67;2.30;;;;;;;;;;4973636;28;20034;-76
2022/06/17 05:04:33;;;;;;;4.15;2.47;;;;;;;;;;4984149;28;20035;-76
2022/06/17 05:06:58;;;;;;;2.50;2.00;;;;;;;;;;4989899;28;20441;-74
2022/06/17 05:09:29;;;;;;;7.60;2.85;;;;;;;;;;4992465;28;20034;-75
2022/06/17 05:12:05;;;;;;;6.60;2.75;;;;;;;;;;5006557;28;20030;-75
2022/06/17 05:15:06;;;;;;;4.15;2.95;;;;;;;;;;4991828;28;20034;-75
2022/06/17 05:17:32;;;;;;;8.00;2.95;;;;;;;;;;4985202;28;20208;-74
2022/06/17 05:19:58;;;;;;;3.30;2.60;;;;;;;;;;5005710;28;20042;-75
2022/06/17 05:22:38;;;;;;;3.05;2.75;;;;;;;;;;4973333;28;20036;-73
2022/06/17 05:25:13;;;;;;;4.55;2.97;;;;;;;;;;4988873;28;20466;-75
2022/06/17 05:27:39;;;;;;;5.55;2.80;;;;;;;;;;4987082;28;20026;-73
2022/06/17 05:30:06;;;;;;;6.07;2.63;;;;;;;;;;4971638;28;20463;-74
2022/06/17 05:32:31;;;;;;;7.00;2.80;;;;;;;;;;5006641;28;20038;-72
2022/06/17 05:34:57;;;;;;;6.45;2.67;;;;;;;;;;5008448;28;20021;-74
2022/06/17 05:37:22;;;;;;;7.82;2.50;;;;;;;;;;4990610;28;20039;-74
2022/06/17 05:39:48;;;;;;;5.70;3.17;;;;;;;;;;4989223;28;20027;-76
2022/06/17 05:42:14;;;;;;;9.05;2.78;;;;;;;;;;4980315;28;20456;-75
2022/06/17 05:44:40;;;;;;;5.13;2.55;;;;;;;;;;4992875;28;20030;-75
2022/06/17 05:47:06;;;;;;;7.40;2.78;;;;;;;;;;4977212;28;20424;-75
2022/06/17 05:49:32;;;;;;;3.65;2.13;;;;;;;;;;4974688;28;20538;-78
2022/06/17 05:51:59;;;;;;;6.68;3.17;;;;;;;;;;4993493;28;20088;-76
2022/06/17 05:54:27;;;;;;;2.97;2.28;;;;;;;;;;4984155;28;20026;-76
2022/06/17 05:56:54;;;;;;;4.30;3.15;;;;;;;;;;4982232;28;20022;-75
2022/06/17 05:59:19;;;;;;;4.82;3.00;;;;;;;;;;4991028;28;20075;-76
2022/06/17 06:01:45;;;;;;;6.22;2.70;;;;;;;;;;4989627;28;20022;-74
2022/06/17 06:04:11;;;;;;;8.82;3.00;;;;;;;;;;4983891;28;20490;-73
2022/06/17 06:06:37;;;;;;;4.85;3.03;;;;;;;;;;4988513;28;20030;-74
2022/06/17 06:09:06;;;;;;;8.30;2.47;;;;;;;;;;4987853;28;20080;-73
2022/06/17 06:11:31;;;;;;;10.05;2.78;;;;;;;;;;4982022;28;20125;-73
2022/06/17 06:13:57;;;;;;;6.63;2.67;;;;;;;;;;4978120;28;20109;-74
2022/06/17 06:16:23;;;;;;;5.70;2.88;;;;;;;;;;4999229;28;20038;-74
2022/06/17 06:18:50;;;;;;;5.68;2.45;;;;;;;;;;4986999;28;20428;-76
2022/06/17 06:21:16;;;;;;;10.45;3.40;;;;;;;;;;4983546;28;20028;-74
2022/06/17 06:23:43;;;;;;;6.00;2.58;;;;;;;;;;4985389;28;20033;-69
2022/06/17 06:26:20;;;;;;;5.22;2.45;;;;;;;;;;4987039;28;20166;-72
2022/06/17 06:28:47;;;;;;;9.75;2.88;;;;;;;;;;4985958;28;20578;-76
2022/06/17 06:31:35;;;;;;;2.60;1.90;;;;;;;;;;4994946;28;20128;-73
2022/06/17 06:34:01;;;;;;;3.40;2.25;;;;;;;;;;4985362;28;20454;-71
2022/06/17 06:36:28;;;;;;;3.47;2.70;;;;;;;;;;4981603;28;20030;-73
2022/06/17 06:38:53;;;;;;;7.22;3.05;;;;;;;;;;4985156;28;20022;-74
2022/06/17 06:41:20;;;;;;;9.18;2.58;;;;;;;;;;4971509;28;20053;-72
2022/06/17 06:43:46;;;;;;;8.80;3.53;;;;;;;;;;4979677;28;20368;-73
2022/06/17 06:46:13;;;;;;;4.57;2.78;;;;;;;;;;4983338;28;20030;-75
2022/06/17 06:48:43;;;;;;;3.00;2.17;;;;;;;;;;4977332;28;20027;-76
2022/06/17 06:51:08;;;;;;;4.90;2.58;;;;;;;;;;4979041;28;20018;-70
2022/06/17 06:53:34;;;;;;;7.13;2.05;;;;;;;;;;4983272;28;20030;-76
2022/06/17 06:55:59;;;;;;;3.67;2.10;;;;;;;;;;4981244;28;20030;-71
2022/06/17 06:58:28;;;;;;;2.88;1.88;;;;;;;;;;4978853;28;20033;-75
2022/06/17 07:00:56;;;;;;;5.30;2.40;;;;;;;;;;4982952;28;20136;-76
2022/06/17 07:03:23;;;;;;;5.43;2.20;;;;;;;;;;4988245;28;20116;-74
2022/06/17 07:05:51;;;;;;;5.00;2.13;;;;;;;;;;4989997;28;20102;-74
2022/06/17 07:08:20;;;;;;;2.58;1.63;;;;;;;;;;4977202;28;20050;-76
2022/06/17 07:10:48;;;;;;;4.00;2.00;;;;;;;;;;4978693;28;20030;-71
2022/06/17 07:13:14;;;;;;;8.05;2.83;;;;;;;;;;4978056;28;20044;-72
2022/06/17 07:15:43;;;;;;;5.25;1.80;;;;;;;;;;4986955;28;20026;-71
2022/06/17 07:18:26;;;;;;;2.75;1.67;;;;;;;;;;4985415;28;20034;-73
2022/06/17 07:20:58;;;;;;;3.70;1.90;;;;;;;;;;4983487;28;20034;-72
2022/06/17 07:23:33;;;;;;;4.28;1.60;;;;;;;;;;4986625;28;20060;-74
2022/06/17 07:26:11;;;;;;;2.17;1.60;;;;;;;;;;4989492;28;20025;-74
2022/06/17 07:28:37;;;;;;;4.25;1.48;;;;;;;;;;4993082;28;20058;-75
2022/06/17 07:31:03;;;;;;;3.55;1.50;;;;;;;;;;4992170;28;20073;-73
2022/06/17 07:33:30;;;;;;;3.97;1.30;;;;;;;;;;5010498;28;20025;-73
2022/06/17 07:35:59;;;;;;;6.60;2.00;;;;;;;;;;4980087;28;20030;-74
2022/06/17 07:41:16;;;;;;;7.22;1.08;;;;;;;;;;4994130;28;20085;-74
2022/06/17 07:43:42;;;;;;;4.35;1.73;;;;;;;;;;4990547;28;20026;-74
2022/06/17 07:46:08;;;;;;;7.28;2.20;;;;;;;;;;4983716;28;20137;-76
2022/06/17 07:48:34;;;;;;;5.05;1.60;;;;;;;;;;4990513;28;20117;-74
2022/06/17 07:51:00;;;;;;;4.65;1.90;;;;;;;;;;4997217;28;20041;-74
2022/06/17 07:53:28;;;;;;;6.03;1.80;;;;;;;;;;4989793;28;20027;-74
2022/06/17 07:55:55;;;;;;;10.45;4.93;;;;;;;;;;5004010;28;20041;-74
2022/06/17 07:58:21;;;;;;;4.22;1.63;;;;;;;;;;4992507;28;20149;-74
2022/06/17 08:00:48;;;;;;;3.20;1.50;;;;;;;;;;4987795;28;20105;-73
2022/06/17 08:03:19;;;;;;;7.20;1.60;;;;;;;;;;4995236;28;20080;-74
2022/06/17 08:05:48;;;;;;;1.95;1.50;;;;;;;;;;4990599;28;20409;-76
2022/06/17 08:08:21;;;;;;;3.33;1.63;;;;;;;;;;5009593;28;20121;-74
2022/06/17 08:10:50;;;;;;;2.45;1.00;;;;;;;;;;4992485;28;20609;-74
2022/06/17 08:13:15;;;;;;;6.57;1.98;;;;;;;;;;5001400;28;20062;-74
2022/06/17 08:15:41;;;;;;;11.27;2.58;;;;;;;;;;5001244;28;20060;-73
2022/06/17 08:18:07;;;;;;;3.22;1.30;;;;;;;;;;4984734;28;20121;-74
2022/06/17 08:20:38;;;;;;;3.17;1.40;;;;;;;;;;5000685;28;20025;-75
2022/06/17 08:23:06;;;;;;;5.35;1.67;;;;;;;;;;4993125;28;20034;-74
2022/06/17 08:25:34;;;;;;;4.88;1.20;;;;;;;;;;4998979;28;20515;-74
2022/06/17 08:28:03;;;;;;;2.72;1.30;;;;;;;;;;5000263;28;20051;-74
2022/06/17 08:30:53;;;;;;;3.97;1.10;;;;;;;;;;5005181;28;20072;-73
2022/06/17 08:33:27;;;;;;;1.70;1.20;;;;;;;;;;5001834;28;20444;-73
2022/06/17 08:35:54;;;;;;;6.72;1.42;;;;;;;;;;4996477;28;20109;-72
2022/06/17 08:38:34;;;;;;;4.20;1.50;;;;;;;;;;4995575;28;20026;-72
2022/06/17 08:41:10;;;;;;;4.60;1.20;;;;;;;;;;5003446;28;20034;-71
2022/06/17 08:43:54;;;;;;;2.83;1.20;;;;;;;;;;4999058;28;20073;-71
2022/06/17 08:46:55;;;;;;;1.92;1.20;;;;;;;;;;5002813;28;20031;-72
2022/06/17 08:49:45;;;;;;;4.72;1.40;;;;;;;;;;5006573;28;20183;-72
2022/06/17 08:52:35;;;;;;;2.83;2.30;;;;;;;;;;5009932;28;20149;-73
2022/06/17 08:55:28;;;;;;;3.97;1.40;;;;;;;;;;4994426;28;20022;-73
2022/06/17 08:58:24;;;;;;;3.28;1.20;;;;;;;;;;4990428;28;20022;-74
2022/06/17 09:01:09;;;;;;;3.22;1.50;;;;;;;;;;4995279;28;20149;-75
2022/06/17 09:04:14;;;;;;;5.65;1.40;;;;;;;;;;4997569;28;20526;-74
2022/06/17 09:06:49;;;;;;;6.13;1.80;;;;;;;;;;5003423;28;20048;-75
2022/06/17 09:09:36;;;;;;;4.40;1.33;;;;;;;;;;4999345;28;20026;-76
2022/06/17 09:12:21;;;;;;;2.10;1.42;;;;;;;;;;5020309;28;20081;-77
2022/06/17 09:15:04;;;;;;;3.15;1.30;;;;;;;;;;5001179;28;20030;-75
2022/06/17 09:17:59;;;;;;;2.40;1.10;;;;;;;;;;5014307;28;20030;-74
2022/06/17 09:20:32;;;;;;;2.90;1.05;;;;;;;;;;5018222;28;20398;-77
2022/06/17 09:23:03;;;;;;;4.65;1.20;;;;;;;;;;4991345;28;20039;-76
2022/06/17 09:25:38;;;;;;;5.40;1.80;;;;;;;;;;5012635;28;20048;-76
2022/06/17 09:28:10;;;;;;;2.97;0.93;;;;;;;;;;4990606;28;20038;-74
2022/06/17 09:30:49;;;;;;;2.10;1.40;;;;;;;;;;4998833;28;20065;-76
2022/06/17 09:33:21;;;;;;;1.80;1.60;;;;;;;;;;4996765;28;20117;-76
2022/06/17 09:36:13;;;;;;;5.60;1.70;;;;;;;;;;4980456;28;20105;-75
2022/06/17 09:38:59;;;;;;;10.27;1.75;;;;;;;;;;4987123;28;20137;-75
2022/06/17 09:41:28;;;;;;;3.67;1.38;;;;;;;;;;5008354;28;20513;-75
2022/06/17 09:44:16;;;;;;;3.38;1.00;;;;;;;;;;4995374;28;20026;-75
2022/06/17 09:46:49;;;;;;;2.63;1.42;;;;;;;;;;5002943;28;20029;-74
2022/06/17 09:49:28;;;;;;;3.72;1.05;;;;;;;;;;4994085;28;20025;-76
2022/06/17 09:52:25;;;;;;;7.22;1.77;;;;;;;;;;4993233;28;20041;-76
2022/06/17 09:54:59;;;;;;;2.05;1.00;;;;;;;;;;5003248;28;20134;-76
2022/06/17 09:57:51;;;;;;;3.90;1.20;;;;;;;;;;5010857;28;20022;-76
2022/06/17 10:00:20;;;;;;;2.40;1.73;;;;;;;;;;5006395;28;20050;-75
2022/06/17 10:03:12;;;;;;;4.75;1.55;;;;;;;;;;4994944;28;20506;-78
2022/06/17 10:06:08;;;;;;;9.35;2.72;;;;;;;;;;5010294;28;20504;-75
2022/06/17 10:08:39;;;;;;;3.55;1.00;;;;;;;;;;5017931;28;20046;-76
2022/06/17 10:11:13;;;;;;;;;;;;;;;;;;4990315;28;20061;-75
2022/06/17 10:13:42;;;;;;;1.77;1.52;;;;;;;;;;4991865;28;19918;-77
2022/06/17 10:19:35;;;;;;;6.50;1.60;;;;;;;;;;5002337;28;20045;-76
2022/06/17 10:22:28;;;;;;;3.63;1.38;;;;;;;;;;4998850;28;20380;-74
2022/06/17 10:25:14;;;;;;;2.03;1.23;;;;;;;;;;4989718;28;20026;-77
2022/06/17 10:28:03;;;;;;;5.25;1.40;;;;;;;;;;5001802;28;20283;-75
2022/06/17 10:30:41;;;;;;;3.58;1.90;;;;;;;;;;4987634;28;20054;-77
2022/06/17 10:33:11;;;;;;;13.75;5.80;;;;;;;;;;4989910;28;20054;-75
2022/06/17 10:35:40;;;;;;;1.80;1.00;;;;;;;;;;5013169;28;20096;-76
2022/06/17 10:38:10;;;;;;;4.30;1.45;;;;;;;;;;4983120;28;20575;-76
2022/06/17 10:40:40;;;;;;;2.73;1.43;;;;;;;;;;4987226;28;20453;-76
2022/06/17 10:43:12;;;;;;;9.55;4.65;;;;;;;;;;4987864;28;20034;-77
2022/06/17 10:45:38;;;;;;;2.50;1.27;;;;;;;;;;4992138;28;20393;-75
2022/06/17 10:48:17;;;;;;;4.82;2.28;;;;;;;;;;5004893;28;20023;-73
2022/06/17 10:50:42;;;;;;;3.90;1.65;;;;;;;;;;4985559;28;20022;-73
2022/06/17 10:53:08;;;;;;;0.90;0.80;;;;;;;;;;4983331;28;20040;-74
2022/06/17 10:55:40;;;;;;;2.65;1.05;;;;;;;;;;5000731;28;20030;-74
2022/06/17 10:58:22;;;;;;;2.08;1.40;;;;;;;;;;4988373;28;20037;-73
2022/06/17 11:00:53;;;;;;;1.92;1.00;;;;;;;;;;4986467;28;20089;-73
2022/06/17 11:03:41;;;;;;;2.55;1.50;;;;;;;;;;4989654;28;20030;-75
2022/06/17 11:06:09;;;;;;;2.10;1.77;;;;;;;;;;4983542;28;20034;-75
2022/06/17 11:09:01;;;;;;;1.90;1.30;;;;;;;;;;4984170;28;20037;-75
2022/06/17 11:12:04;;;;;;;4.43;1.70;;;;;;;;;;4982947;28;20042;-73
2022/06/17 11:14:31;;;;;;;5.95;1.42;;;;;;;;;;4984711;28;20030;-76
2022/06/17 11:16:58;;;;;;;4.90;1.40;;;;;;;;;;4998770;28;20038;-76
2022/06/17 11:19:26;;;;;;;1.15;0.80;;;;;;;;;;4982990;28;20220;-75
2022/06/17 11:22:02;;;;;;;6.82;1.77;;;;;;;;;;4983571;28;20501;-76
2022/06/17 11:24:33;;;;;;;1.60;0.90;;;;;;;;;;4984269;28;20120;-74
2022/06/17 11:27:23;;;;;;;1.77;0.90;;;;;;;;;;4996406;28;20400;-75
2022/06/17 11:29:51;;;;;;;5.93;1.95;;;;;;;;;;4983806;28;20053;-74
2022/06/17 11:32:20;;;;;;;8.65;1.67;;;;;;;;;;4979794;28;20066;-75
2022/06/17 11:34:56;;;;;;;2.22;0.95;;;;;;;;;;4981906;28;20046;-76
2022/06/17 11:37:43;;;;;;;1.48;0.75;;;;;;;;;;4996319;28;20030;-75
2022/06/17 11:40:11;;;;;;;2.67;1.30;;;;;;;;;;4985382;28;20030;-74
2022/06/17 11:42:50;;;;;;;6.45;1.45;;;;;;;;;;4983259;28;20054;-74
2022/06/17 11:45:32;;;;;;;4.63;1.30;;;;;;;;;;4998355;28;20108;-73
2022/06/17 11:48:13;;;;;;;3.80;1.63;;;;;;;;;;4984519;28;20198;-72
2022/06/17 11:50:42;;;;;;;7.82;1.35;;;;;;;;;;4981397;28;20522;-74
2022/06/17 11:53:16;;;;;;;3.80;1.83;;;;;;;;;;5003354;28;20678;-71
2022/06/17 11:55:45;;;;;;;2.45;1.70;;;;;;;;;;4983954;28;20504;-72
2022/06/17 11:58:12;;;;;;;4.15;1.23;;;;;;;;;;4986266;28;20042;-74
2022/06/17 12:00:51;;;;;;;1.20;1.10;;;;;;;;;;4986846;28;20033;-75
2022/06/17 12:03:21;;;;;;;1.35;0.73;;;;;;;;;;4986741;28;20528;-72
2022/06/17 12:06:00;;;;;;;2.20;1.38;;;;;;;;;;4985549;28;20044;-74
2022/06/17 12:08:35;;;;;;;3.58;1.13;;;;;;;;;;5004598;28;20069;-74
2022/06/17 12:11:40;;;;;;;5.47;1.23;;;;;;;;;;4987207;28;20034;-74
2022/06/17 12:14:15;;;;;;;3.20;1.33;;;;;;;;;;4987112;28;20038;-73
2022/06/17 12:16:43;;;;;;;2.15;1.20;;;;;;;;;;4987103;28;20066;-74
2022/06/17 12:19:20;;;;;;;2.15;1.02;;;;;;;;;;4985968;28;20141;-74
2022/06/17 12:22:05;;;;;;;2.55;1.10;;;;;;;;;;4981660;28;20113;-73
2022/06/17 12:25:01;;;;;;;3.83;1.55;;;;;;;;;;4987593;28;20102;-73
2022/06/17 12:27:43;;;;;;;5.10;2.70;;;;;;;;;;4985041;28;20022;-75
2022/06/17 12:30:19;;;;;;;6.47;1.00;;;;;;;;;;4983633;28;20044;-73
2022/06/17 12:33:10;;;;;;;2.05;1.20;;;;;;;;;;4987171;28;20078;-73
2022/06/17 12:35:47;;;;;;;3.08;1.17;;;;;;;;;;4985587;28;20052;-73
2022/06/17 12:38:27;;;;;;;1.70;0.70;;;;;;;;;;5002301;28;20058;-74
2022/06/17 12:40:58;;;;;;;2.70;1.58;;;;;;;;;;4988836;28;20030;-72
2022/06/17 12:43:26;;;;;;;2.95;1.20;;;;;;;;;;4991463;28;20044;-72
2022/06/17 12:46:00;;;;;;;8.73;1.35;;;;;;;;;;4997599;28;20038;-73
2022/06/17 12:53:13;;;;;;;2.35;1.20;;;;;;;;;;4985598;28;20033;-72
2022/06/17 12:54:55;;;;;;;3.28;1.20;;;;;;;;;;4986401;28;20176;-72
2022/06/17 12:57:31;;;;;;;2.35;0.90;;;;;;;;;;4999051;28;20018;-74
2022/06/17 13:00:19;;;;;;;2.00;1.08;;;;;;;;;;4983183;28;20034;-73
2022/06/17 13:03:06;;;;;;;1.63;1.15;;;;;;;;;;4986171;28;20113;-73
2022/06/17 13:05:42;;;;;;;3.33;0.90;;;;;;;;;;4983185;28;20037;-74
2022/06/17 13:08:22;;;;;;;2.72;1.27;;;;;;;;;;5001294;28;20038;-74
2022/06/17 13:11:11;;;;;;;2.42;1.10;;;;;;;;;;4995705;28;20022;-74
2022/06/17 13:14:05;;;;;;;3.70;1.05;;;;;;;;;;4989086;28;20026;-73
2022/06/17 13:16:49;;;;;;;2.60;1.38;;;;;;;;;;4999908;28;20109;-74
2022/06/17 13:19:22;;;;;;;3.25;1.50;;;;;;;;;;4999262;28;20114;-74
2022/06/17 13:22:08;;;;;;;1.75;0.98;;;;;;;;;;4984977;28;20045;-72
2022/06/17 13:24:54;;;;;;;2.40;0.75;;;;;;;;;;4984878;28;20058;-73
2022/06/17 13:27:39;;;;;;;5.28;1.40;;;;;;;;;;4999519;28;20026;-73
2022/06/17 13:30:25;;;;;;;1.80;0.60;;;;;;;;;;4987511;28;20050;-74
2022/06/17 13:33:16;;;;;;;4.18;0.98;;;;;;;;;;4985692;28;20104;-74
2022/06/17 13:36:24;;;;;;;6.55;1.13;;;;;;;;;;4990511;28;20482;-78
2022/06/17 13:39:16;;;;;;;3.85;1.10;;;;;;;;;;4985060;28;20037;-73
2022/06/17 13:42:16;;;;;;;4.40;0.80;;;;;;;;;;4998288;28;20061;-76
2022/06/17 13:45:25;;;;;;;1.27;0.90;;;;;;;;;;5020858;28;20433;-75
2022/06/17 13:48:32;;;;;;;3.60;0.70;;;;;;;;;;4988692;28;20034;-75
2022/06/17 13:51:28;;;;;;;2.40;1.13;;;;;;;;;;5011399;28;20040;-76
2022/06/17 13:54:35;;;;;;;1.88;0.60;;;;;;;;;;4996344;28;20030;-75
2022/06/17 13:57:28;;;;;;;3.03;1.05;;;;;;;;;;4991634;28;20105;-75
2022/06/17 13:59:59;;;;;;;2.78;0.90;;;;;;;;;;5004838;28;20137;-75
2022/06/17 14:02:29;;;;;;;3.75;1.35;;;;;;;;;;5005284;28;20026;-75
2022/06/17 14:05:01;;;;;;;2.15;0.70;;;;;;;;;;5021617;28;20390;-76
2022/06/17 14:07:55;;;;;;;2.67;0.88;;;;;;;;;;4997307;28;20029;-75
2022/06/17 14:10:47;;;;;;;1.58;0.77;;;;;;;;;;4991065;28;20026;-74
2022/06/17 14:13:30;;;;;;;7.30;1.25;;;;;;;;;;4988736;28;20034;-75
2022/06/17 14:16:14;;;;;;;1.85;0.50;;;;;;;;;;4985241;28;20497;-74
2022/06/17 14:18:46;;;;;;;1.13;0.80;;;;;;;;;;4997652;28;20034;-75
2022/06/17 14:21:24;;;;;;;4.55;1.88;;;;;;;;;;4995560;28;20034;-74
2022/06/17 14:23:54;;;;;;;1.83;0.98;;;;;;;;;;4982504;28;20061;-75
2022/06/17 14:26:43;;;;;;;2.75;0.93;;;;;;;;;;5013854;28;20033;-74
2022/06/17 14:29:08;;;;;;;2.88;0.63;;;;;;;;;;5009229;28;20115;-76
2022/06/17 14:31:36;;;;;;;7.75;0.82;;;;;;;;;;4996546;28;20051;-75
2022/06/17 14:34:33;;;;;;;6.63;3.65;;;;;;;;;;4969737;28;20026;-74
2022/06/17 14:37:11;;;;;;;2.63;0.95;;;;;;;;;;4971620;28;20368;-74
2022/06/17 14:39:40;;;;;;;5.13;1.42;;;;;;;;;;5003709;28;20406;-74
2022/06/17 14:42:19;;;;;;;1.80;0.60;;;;;;;;;;4991005;28;20125;-76
2022/06/17 14:44:49;;;;;;;3.80;1.13;;;;;;;;;;5005352;28;20026;-77
2022/06/17 14:47:18;;;;;;;1.75;0.50;;;;;;;;;;4987801;28;20557;-75
2022/06/17 14:49:58;;;;;;;0.90;0.68;;;;;;;;;;4998919;28;20036;-75
2022/06/17 14:52:41;;;;;;;2.53;0.75;;;;;;;;;;4993452;28;20506;-75
2022/06/17 14:55:13;;;;;;;3.05;0.55;;;;;;;;;;5003111;28;20030;-74
2022/06/17 14:57:53;;;;;;;3.75;0.82;;;;;;;;;;4999630;28;20040;-75
2022/06/17 15:00:20;;;;;;;2.65;0.95;;;;;;;;;;4992113;28;20513;-75
2022/06/17 15:02:49;;;;;;;1.48;0.85;;;;;;;;;;4993009;28;20033;-75
2022/06/17 15:05:36;;;;;;;1.65;0.80;;;;;;;;;;5006523;28;20038;-76
2022/06/17 15:08:11;;;;;;;2.58;0.85;;;;;;;;;;4984768;28;20023;-75
2022/06/17 15:10:38;;;;;;;5.53;0.80;;;;;;;;;;5005126;28;20025;-72
2022/06/17 15:14:07;;;;;;;2.95;0.55;;;;;;;;;;5007669;28;20033;-74
2022/06/17 15:16:02;;;;;;;3.55;0.80;;;;;;;;;;4982622;28;20472;-74
2022/06/17 15:18:28;;;;;;;1.65;0.60;;;;;;;;;;4970474;28;20031;-75
2022/06/17 15:21:00;;;;;;;2.42;1.33;;;;;;;;;;4995907;28;20042;-74
2022/06/17 15:23:46;;;;;;;2.60;0.57;;;;;;;;;;5003792;28;20432;-75
2022/06/17 15:26:20;;;;;;;1.63;0.57;;;;;;;;;;4999657;28;20113;-74
2022/06/17 15:28:51;;;;;;;3.13;1.98;;;;;;;;;;5003597;28;20091;-73
2022/06/17 15:31:27;;;;;;;2.10;1.00;;;;;;;;;;4982491;28;20046;-74
2022/06/17 15:33:59;;;;;;;8.85;1.30;;;;;;;;;;5017236;28;20032;-76
2022/06/17 15:36:33;;;;;;;3.92;0.70;;;;;;;;;;5004987;28;20674;-75
2022/06/17 15:39:34;;;;;;;2.17;1.40;;;;;;;;;;4989603;28;20025;-75